createdAt,value
2017-12-28T00:02:24.166Z,88.47
2017-12-28T00:04:53.333Z,88.77
2017-12-28T00:07:21.662Z,89.07
2017-12-28T00:09:49.993Z,88.92
2017-12-28T00:12:18.409Z,88.78
2017-12-28T00:14:46.737Z,88.78
2017-12-28T00:17:15.049Z,88.90
2017-12-28T00:19:43.513Z,88.77
2017-12-28T00:22:11.822Z,88.49
2017-12-28T00:24:40.157Z,88.75
2017-12-28T00:27:08.472Z,88.70
2017-12-28T00:29:36.840Z,88.91
2017-12-28T00:32:05.149Z,88.72
2017-12-28T00:34:33.481Z,88.75
2017-12-28T00:37:01.794Z,88.69
2017-12-28T00:39:30.117Z,88.48
2017-12-28T00:41:58.433Z,88.65
2017-12-28T00:44:26.765Z,89.08
2017-12-28T00:46:55.165Z,89.37
2017-12-28T00:49:23.498Z,89.58
2017-12-28T00:51:51.860Z,89.33
2017-12-28T00:54:20.226Z,88.45
2017-12-28T00:56:48.573Z,87.52
2017-12-28T00:59:16.905Z,88.05
2017-12-28T01:01:45.225Z,88.27
2017-12-28T01:04:13.560Z,88.81
2017-12-28T01:06:41.961Z,88.85
2017-12-28T01:09:10.360Z,88.28
2017-12-28T01:11:38.673Z,88.41
2017-12-28T01:14:07.030Z,87.91
2017-12-28T01:16:35.342Z,85.71
2017-12-28T01:19:03.753Z,83.67
2017-12-28T01:21:32.293Z,84.12
2017-12-28T01:24:00.757Z,83.08
2017-12-28T01:26:29.071Z,83.31
2017-12-28T01:28:57.401Z,83.06
2017-12-28T01:31:25.714Z,82.78
2017-12-28T01:33:54.038Z,82.87
2017-12-28T01:36:22.397Z,83.36
2017-12-28T01:38:50.777Z,83.44
2017-12-28T01:41:19.152Z,83.56
2017-12-28T01:43:47.486Z,83.61
2017-12-28T01:46:15.805Z,83.46
2017-12-28T01:48:44.108Z,83.88
2017-12-28T01:51:12.567Z,83.66
2017-12-28T01:53:40.877Z,83.65
2017-12-28T01:56:09.262Z,83.87
2017-12-28T01:58:37.597Z,83.77
2017-12-28T02:01:05.922Z,83.90
2017-12-28T02:03:34.246Z,84.44
2017-12-28T02:06:02.621Z,84.87
2017-12-28T02:08:30.998Z,84.91
2017-12-28T02:10:59.373Z,84.79
2017-12-28T02:13:27.753Z,84.72
2017-12-28T02:15:56.085Z,85.29
2017-12-28T02:18:24.390Z,85.31
2017-12-28T02:20:52.718Z,85.42
2017-12-28T02:23:21.157Z,84.82
2017-12-28T02:25:49.490Z,84.86
2017-12-28T02:28:17.810Z,84.39
2017-12-28T02:30:46.164Z,84.64
2017-12-28T02:33:14.561Z,84.87
2017-12-28T02:35:42.894Z,84.77
2017-12-28T02:38:11.197Z,84.70
2017-12-28T02:40:39.630Z,84.87
2017-12-28T02:43:07.989Z,84.85
2017-12-28T02:45:36.342Z,84.79
2017-12-28T02:48:04.725Z,84.81
2017-12-28T02:50:33.054Z,84.43
2017-12-28T02:53:01.359Z,84.46
2017-12-28T02:55:29.681Z,84.61
2017-12-28T02:57:57.985Z,84.67
2017-12-28T03:00:26.405Z,84.48
2017-12-28T03:02:54.722Z,84.35
2017-12-28T03:05:23.049Z,84.41
2017-12-28T03:07:51.349Z,84.47
2017-12-28T03:10:19.681Z,84.89
2017-12-28T03:12:47.985Z,84.84
2017-12-28T03:15:16.669Z,85.13
2017-12-28T03:17:45.081Z,85.28
2017-12-28T03:20:13.436Z,85.72
2017-12-28T03:22:41.737Z,85.53
2017-12-28T03:25:10.070Z,85.75
2017-12-28T03:27:38.373Z,85.68
2017-12-28T03:30:06.733Z,85.64
2017-12-28T03:32:35.151Z,85.45
2017-12-28T03:35:03.487Z,85.50
2017-12-28T03:37:31.794Z,85.54
2017-12-28T03:40:00.142Z,85.16
2017-12-28T03:42:28.449Z,84.82
2017-12-28T03:44:56.779Z,84.78
2017-12-28T03:47:25.169Z,85.33
2017-12-28T03:49:53.473Z,85.47
2017-12-28T03:52:21.801Z,85.28
2017-12-28T03:54:50.110Z,85.62
2017-12-28T03:57:18.448Z,85.68
2017-12-28T03:59:46.753Z,85.67
2017-12-28T04:02:15.113Z,85.37
2017-12-28T04:04:43.453Z,85.41
2017-12-28T04:07:11.785Z,85.20
2017-12-28T04:09:40.094Z,85.21
2017-12-28T04:12:08.423Z,84.82
2017-12-28T04:14:36.733Z,84.84
2017-12-28T04:17:05.057Z,85.33
2017-12-28T04:19:33.361Z,85.28
2017-12-28T04:22:01.734Z,84.97
2017-12-28T04:24:30.046Z,84.92
2017-12-28T04:26:58.425Z,84.75
2017-12-28T04:29:26.735Z,84.67
2017-12-28T04:31:55.117Z,85.31
2017-12-28T04:34:23.515Z,85.42
2017-12-28T04:36:51.889Z,85.62
2017-12-28T04:39:20.271Z,85.35
2017-12-28T04:41:48.618Z,85.51
2017-12-28T04:44:16.957Z,85.46
2017-12-28T04:46:45.301Z,85.77
2017-12-28T04:49:13.609Z,85.75
2017-12-28T04:51:41.938Z,85.54
2017-12-28T04:54:10.332Z,85.55
2017-12-28T04:56:38.710Z,85.64
2017-12-28T04:59:07.059Z,85.84
2017-12-28T05:01:35.440Z,86.08
2017-12-28T05:04:03.742Z,86.21
2017-12-28T05:06:32.131Z,86.35
2017-12-28T05:09:00.485Z,86.32
2017-12-28T05:11:28.909Z,86.59
2017-12-28T05:13:57.246Z,86.83
2017-12-28T05:16:25.573Z,86.77
2017-12-28T05:18:53.876Z,86.78
2017-12-28T05:21:22.311Z,86.85
2017-12-28T05:23:50.646Z,86.97
2017-12-28T05:26:19.030Z,86.90
2017-12-28T05:28:47.409Z,87.04
2017-12-28T05:31:15.777Z,87.15
2017-12-28T05:33:44.121Z,87.11
2017-12-28T05:36:12.473Z,86.95
2017-12-28T05:38:40.786Z,86.83
2017-12-28T05:41:09.193Z,86.91
2017-12-28T05:43:37.560Z,86.79
2017-12-28T05:46:05.899Z,86.66
2017-12-28T05:48:34.209Z,86.70
2017-12-28T05:51:02.581Z,86.89
2017-12-28T05:53:30.941Z,86.95
2017-12-28T05:55:59.261Z,86.77
2017-12-28T05:58:27.623Z,86.82
2017-12-28T06:00:55.937Z,86.90
2017-12-28T06:03:24.268Z,87.08
2017-12-28T06:05:52.577Z,86.95
2017-12-28T06:08:20.941Z,86.92
2017-12-28T06:10:49.298Z,86.90
2017-12-28T06:13:17.627Z,87.02
2017-12-28T06:15:45.933Z,86.95
2017-12-28T06:18:14.272Z,87.02
2017-12-28T06:20:42.618Z,86.80
2017-12-28T06:23:10.950Z,86.73
2017-12-28T06:25:39.253Z,86.91
2017-12-28T06:28:07.617Z,86.84
2017-12-28T06:30:35.933Z,86.93
2017-12-28T06:33:04.301Z,87.11
2017-12-28T06:35:32.634Z,86.90
2017-12-28T06:38:00.953Z,86.72
2017-12-28T06:40:29.261Z,86.86
2017-12-28T06:42:57.594Z,86.73
2017-12-28T06:45:25.909Z,86.70
2017-12-28T06:47:54.241Z,86.83
2017-12-28T06:50:22.629Z,86.83
2017-12-28T06:52:51.006Z,86.94
2017-12-28T06:55:19.434Z,86.73
2017-12-28T06:57:47.756Z,86.84
2017-12-28T07:00:16.066Z,86.79
2017-12-28T07:02:44.805Z,86.93
2017-12-28T07:05:13.230Z,86.80
2017-12-28T07:07:41.571Z,86.86
2017-12-28T07:10:09.877Z,86.71
2017-12-28T07:12:38.209Z,87.98
2017-12-28T07:15:06.919Z,85.79
2017-12-28T07:17:35.253Z,85.59
2017-12-28T07:20:03.574Z,85.99
2017-12-28T07:22:32.046Z,86.07
2017-12-28T07:25:00.400Z,86.03
2017-12-28T07:27:28.760Z,85.95
2017-12-28T07:29:57.041Z,86.30
2017-12-28T07:32:25.384Z,86.58
2017-12-28T07:34:53.709Z,86.76
2017-12-28T07:37:22.039Z,86.94
2017-12-28T07:39:50.535Z,86.78
2017-12-28T07:42:18.911Z,86.66
2017-12-28T07:44:47.297Z,86.74
2017-12-28T07:47:15.678Z,86.38
2017-12-28T07:49:44.234Z,86.42
2017-12-28T07:52:12.688Z,86.62
2017-12-28T07:54:41.010Z,86.36
2017-12-28T07:57:09.323Z,86.23
2017-12-28T07:59:37.796Z,86.28
2017-12-28T08:02:06.190Z,86.04
2017-12-28T08:04:34.529Z,85.88
2017-12-28T08:07:02.859Z,85.77
2017-12-28T08:09:31.194Z,85.48
2017-12-28T08:11:59.803Z,85.28
2017-12-28T08:14:28.260Z,85.11
2017-12-28T08:16:56.593Z,85.23
2017-12-28T08:19:24.925Z,85.18
2017-12-28T08:21:53.243Z,85.16
2017-12-28T08:24:21.578Z,85.18
2017-12-28T08:26:50.041Z,84.54
2017-12-28T08:29:18.462Z,84.56
2017-12-28T08:31:46.773Z,84.17
2017-12-28T08:34:15.144Z,84.23
2017-12-28T08:36:43.498Z,84.04
2017-12-28T08:39:12.032Z,83.80
2017-12-28T08:41:40.469Z,83.56
2017-12-28T08:44:08.816Z,83.55
2017-12-28T08:46:37.126Z,83.14
2017-12-28T08:49:05.716Z,82.92
2017-12-28T08:51:34.093Z,83.25
2017-12-28T08:54:02.426Z,82.57
2017-12-28T08:56:30.899Z,82.38
2017-12-28T08:58:59.293Z,82.18
2017-12-28T09:01:27.769Z,82.10
2017-12-28T09:03:56.189Z,82.23
2017-12-28T09:06:24.511Z,81.62
2017-12-28T09:08:52.849Z,81.69
2017-12-28T09:11:21.171Z,81.88
2017-12-28T09:13:49.722Z,81.54
2017-12-28T09:16:18.098Z,81.14
2017-12-28T09:18:46.448Z,80.97
2017-12-28T09:21:14.756Z,80.52
2017-12-28T09:23:43.189Z,80.32
2017-12-28T09:26:11.796Z,80.72
2017-12-28T09:28:40.216Z,80.59
2017-12-28T09:31:08.551Z,80.92
2017-12-28T09:33:36.886Z,80.55
2017-12-28T09:36:05.396Z,80.64
2017-12-28T09:38:33.810Z,81.18
2017-12-28T09:41:02.125Z,80.37
2017-12-28T09:43:30.470Z,80.07
2017-12-28T09:45:58.782Z,80.23
2017-12-28T09:48:27.126Z,79.87
2017-12-28T09:50:55.510Z,79.67
2017-12-28T09:53:26.213Z,79.60
2017-12-28T09:55:54.678Z,79.76
2017-12-28T09:58:23.057Z,79.82
2017-12-28T10:00:51.357Z,79.40
2017-12-28T10:03:20.202Z,79.55
2017-12-28T10:05:48.578Z,79.39
2017-12-28T10:08:16.949Z,79.23
2017-12-28T10:10:45.358Z,79.44
2017-12-28T10:13:13.693Z,79.46
2017-12-28T10:15:43.111Z,78.93
2017-12-28T10:18:11.492Z,78.69
2017-12-28T10:20:39.907Z,78.96
2017-12-28T10:23:09.002Z,78.63
2017-12-28T10:25:37.349Z,77.96
2017-12-28T10:28:05.679Z,78.05
2017-12-28T10:30:34.034Z,77.98
2017-12-28T10:33:02.372Z,78.48
2017-12-28T10:35:30.733Z,78.01
2017-12-28T10:37:59.058Z,78.24
2017-12-28T10:40:27.442Z,78.02
2017-12-28T10:42:55.769Z,78.02
2017-12-28T10:45:25.107Z,77.47
2017-12-28T10:47:53.468Z,76.96
2017-12-28T10:50:21.810Z,77.19
2017-12-28T10:52:50.132Z,76.94
2017-12-28T10:55:19.463Z,77.68
2017-12-28T10:57:47.822Z,77.27
2017-12-28T11:00:16.563Z,77.31
2017-12-28T11:02:44.971Z,77.01
2017-12-28T11:05:13.294Z,77.27
2017-12-28T11:07:41.615Z,76.93
2017-12-28T11:10:09.965Z,76.77
2017-12-28T11:12:38.286Z,76.92
2017-12-28T11:15:06.626Z,77.30
2017-12-28T11:17:34.949Z,77.76
2017-12-28T11:20:03.353Z,77.56
2017-12-28T11:22:31.666Z,77.40
2017-12-28T11:25:00.012Z,77.41
2017-12-28T11:27:28.326Z,76.61
2017-12-28T11:29:56.670Z,76.10
2017-12-28T11:32:24.986Z,76.37
2017-12-28T11:34:53.353Z,75.41
2017-12-28T11:37:21.666Z,75.62
2017-12-28T11:39:50.045Z,75.58
2017-12-28T11:42:18.366Z,75.12
2017-12-28T11:44:46.703Z,75.50
2017-12-28T11:47:15.038Z,75.13
2017-12-28T11:49:43.386Z,74.94
2017-12-28T11:52:17.239Z,74.90
2017-12-28T11:54:45.577Z,74.80
2017-12-28T11:57:13.916Z,74.28
2017-12-28T11:59:47.833Z,74.97
2017-12-28T12:02:21.655Z,73.77
2017-12-28T12:04:50.008Z,74.48
2017-12-28T12:07:18.331Z,74.30
2017-12-28T12:09:49.405Z,73.14
2017-12-28T12:12:17.744Z,73.22
2017-12-28T12:14:46.107Z,73.42
2017-12-28T12:17:14.471Z,73.08
2017-12-28T12:19:42.835Z,73.44
2017-12-28T12:22:11.191Z,73.59
2017-12-28T12:24:40.339Z,73.49
2017-12-28T12:27:08.730Z,73.73
2017-12-28T12:29:37.092Z,73.91
2017-12-28T12:32:05.462Z,73.01
2017-12-28T12:34:33.809Z,73.10
2017-12-28T12:37:02.139Z,72.90
2017-12-28T12:39:30.458Z,72.37
2017-12-28T12:41:58.807Z,71.58
2017-12-28T12:44:27.263Z,72.00
2017-12-28T12:46:55.603Z,72.37
2017-12-28T12:49:23.930Z,72.48
2017-12-28T12:51:52.291Z,72.14
2017-12-28T12:54:20.603Z,71.83
2017-12-28T12:56:48.997Z,72.36
2017-12-28T12:59:17.326Z,71.41
2017-12-28T13:01:45.679Z,70.93
2017-12-28T13:04:14.950Z,72.19
2017-12-28T13:06:43.305Z,71.57
2017-12-28T13:09:11.702Z,72.45
2017-12-28T13:11:40.081Z,71.90
2017-12-28T13:14:08.411Z,72.17
2017-12-28T13:16:36.787Z,72.00
2017-12-28T13:19:05.107Z,70.08
2017-12-28T13:21:33.454Z,71.14
2017-12-28T13:24:01.771Z,70.85
2017-12-28T13:26:30.115Z,70.93
2017-12-28T13:28:58.444Z,71.40
2017-12-28T13:31:27.130Z,71.23
2017-12-28T13:33:55.488Z,70.85
2017-12-28T13:36:23.830Z,71.04
2017-12-28T13:38:52.181Z,70.25
2017-12-28T13:41:20.517Z,70.26
2017-12-28T13:43:48.837Z,69.46
2017-12-28T13:46:17.174Z,68.92
2017-12-28T13:48:45.500Z,69.68
2017-12-28T13:51:13.849Z,69.00
2017-12-28T13:53:42.174Z,69.31
2017-12-28T13:56:10.511Z,69.88
2017-12-28T13:58:38.854Z,69.24
2017-12-28T14:01:07.203Z,68.64
2017-12-28T14:03:35.532Z,68.59
2017-12-28T14:06:03.865Z,68.93
2017-12-28T14:08:32.186Z,68.67
2017-12-28T14:11:00.522Z,68.55
2017-12-28T14:13:28.836Z,69.01
